Time;durP1;ratioP1;P1;durP2;ratioP2;P2;SDS_P1;SDS_P2;PMS_P1;PMS_P2;Temp;Humidity;BMP_temperature;BMP_pressure;BME280_temperature;BME280_humidity;BME280_pressure;Samples;Min_cycle;Max_cycle;Signal;HPM_P1;HPM_P2
2022/09/14 00:00:30;;;;;;;7.03;1.67;;;25.10;1.00;;;;;;5031213;28;20029;-60
2022/09/14 00:02:56;;;;;;;4.85;1.63;;;25.00;1.00;;;;;;5029267;28;20021;-59
2022/09/14 00:05:22;;;;;;;4.10;1.50;;;25.10;1.00;;;;;;5030433;28;20515;-60
2022/09/14 00:07:47;;;;;;;4.45;1.73;;;25.10;1.00;;;;;;5031504;28;20030;-60
2022/09/14 00:10:13;;;;;;;5.22;2.15;;;25.10;1.00;;;;;;5031046;28;20352;-59
2022/09/14 00:12:39;;;;;;;5.10;1.95;;;25.00;1.00;;;;;;5030308;28;20047;-60
2022/09/14 00:15:06;;;;;;;3.67;1.77;;;25.00;1.00;;;;;;5030253;28;20044;-60
2022/09/14 00:17:32;;;;;;;3.58;1.88;;;25.00;1.00;;;;;;5031137;28;20048;-60
2022/09/14 00:19:58;;;;;;;2.78;1.80;;;25.20;1.00;;;;;;5031888;28;20491;-60
2022/09/14 00:22:23;;;;;;;3.20;2.03;;;25.00;1.00;;;;;;5031405;28;20083;-60
2022/09/14 00:24:49;;;;;;;3.58;1.50;;;25.00;1.00;;;;;;5029453;28;20018;-60
2022/09/14 00:27:15;;;;;;;6.03;1.38;;;24.90;1.00;;;;;;5030759;28;20030;-60
2022/09/14 00:29:41;;;;;;;3.35;1.30;;;25.00;1.00;;;;;;5027759;28;20043;-60
2022/09/14 00:32:06;;;;;;;3.28;1.42;;;24.90;1.00;;;;;;5030636;28;20105;-60
2022/09/14 00:34:33;;;;;;;2.22;1.50;;;24.90;1.00;;;;;;5028388;28;20076;-60
2022/09/14 00:36:59;;;;;;;2.30;1.70;;;25.00;1.00;;;;;;5031156;28;20049;-59
2022/09/14 00:39:26;;;;;;;3.92;1.80;;;24.90;1.00;;;;;;5033012;28;20394;-59
2022/09/14 00:41:53;;;;;;;1.75;1.38;;;25.00;1.00;;;;;;5041284;28;20049;-59
2022/09/14 00:44:18;;;;;;;4.15;2.00;;;24.90;1.00;;;;;;5042033;28;20046;-60
2022/09/14 00:46:47;;;;;;;4.28;1.92;;;25.10;1.00;;;;;;5022849;28;20061;-59
2022/09/14 00:49:35;;;;;;;3.65;1.45;;;25.00;1.00;;;;;;5029113;28;20352;-59
2022/09/14 00:52:15;;;;;;;6.00;2.00;;;25.10;1.00;;;;;;5032204;28;20038;-59
2022/09/14 00:54:48;;;;;;;5.07;1.90;;;24.80;1.00;;;;;;5019168;28;20026;-60
2022/09/14 00:57:15;;;;;;;2.88;1.50;;;25.00;1.00;;;;;;5030982;28;20040;-59
2022/09/14 00:59:42;;;;;;;3.38;1.88;;;24.90;1.00;;;;;;5019409;28;20117;-60
2022/09/14 01:02:11;;;;;;;2.95;1.40;;;24.80;1.00;;;;;;5030412;28;20475;-60
2022/09/14 01:04:36;;;;;;;3.58;1.80;;;24.90;1.00;;;;;;5031785;28;20030;-60
2022/09/14 01:07:44;;;;;;;4.93;1.58;;;25.00;1.00;;;;;;5038793;28;20029;-60
2022/09/14 01:10:39;;;;;;;3.25;1.30;;;24.90;1.00;;;;;;5025185;28;20033;-59
2022/09/14 01:13:18;;;;;;;4.13;1.70;;;25.00;1.00;;;;;;5030791;28;20032;-60
2022/09/14 01:16:21;;;;;;;4.30;1.90;;;25.00;1.00;;;;;;5031761;28;20041;-60
2022/09/14 01:18:58;;;;;;;5.90;1.95;;;25.00;1.00;;;;;;5035126;28;20138;-60
2022/09/14 01:21:33;;;;;;;3.97;1.63;;;25.10;1.00;;;;;;5031473;28;20116;-60
2022/09/14 01:24:17;;;;;;;5.95;2.05;;;25.00;1.00;;;;;;5031545;28;20052;-60
2022/09/14 01:26:57;;;;;;;2.92;1.98;;;24.90;1.00;;;;;;5034512;28;20022;-60
2022/09/14 01:29:32;;;;;;;3.85;1.92;;;25.00;1.00;;;;;;5032705;28;20096;-60
2022/09/14 01:32:14;;;;;;;4.68;2.13;;;24.80;1.00;;;;;;5032705;28;20041;-60
2022/09/14 01:34:52;;;;;;;4.28;1.60;;;24.80;1.00;;;;;;5031959;28;20078;-60
2022/09/14 01:37:26;;;;;;;3.97;2.20;;;24.80;1.00;;;;;;5029173;28;20471;-60
2022/09/14 01:40:02;;;;;;;1.83;1.42;;;24.70;1.00;;;;;;5040519;28;20025;-60
2022/09/14 01:42:28;;;;;;;3.95;1.90;;;24.90;1.00;;;;;;5028310;28;20124;-60
2022/09/14 01:44:58;;;;;;;4.93;1.88;;;25.00;1.00;;;;;;5034675;28;20061;-60
2022/09/14 01:47:30;;;;;;;2.50;1.77;;;24.90;1.00;;;;;;5025693;28;20030;-60
2022/09/14 01:50:08;;;;;;;3.17;1.80;;;24.80;1.00;;;;;;5038318;28;20022;-60
2022/09/14 01:52:41;;;;;;;5.03;1.80;;;24.90;1.00;;;;;;5029153;28;20036;-60
2022/09/14 01:55:12;;;;;;;3.43;1.60;;;24.90;1.00;;;;;;5041295;28;20025;-60
2022/09/14 01:57:44;;;;;;;2.17;1.60;;;24.80;1.00;;;;;;5037244;28;20676;-60
2022/09/14 02:00:15;;;;;;;5.70;1.67;;;24.80;1.00;;;;;;5032970;28;20036;-61
2022/09/14 02:03:06;;;;;;;2.03;1.33;;;24.80;1.00;;;;;;5029828;28;20061;-61
2022/09/14 02:05:56;;;;;;;5.13;1.70;;;24.90;1.00;;;;;;5030924;28;20021;-61
2022/09/14 02:08:26;;;;;;;3.75;1.50;;;24.90;1.00;;;;;;5022294;28;20079;-60
2022/09/14 02:10:52;;;;;;;2.20;1.42;;;24.90;1.00;;;;;;5031054;28;20029;-60
2022/09/14 02:13:17;;;;;;;4.20;1.65;;;24.90;1.00;;;;;;5032722;28;20048;-60
2022/09/14 02:15:43;;;;;;;4.28;1.50;;;24.90;1.00;;;;;;5036099;28;20352;-60
2022/09/14 02:18:09;;;;;;;4.65;1.42;;;24.90;1.00;;;;;;5037564;28;20045;-60
2022/09/14 02:20:52;;;;;;;6.75;2.00;;;24.90;1.00;;;;;;5033226;28;20112;-60
2022/09/14 02:23:18;;;;;;;4.30;1.52;;;24.90;1.00;;;;;;5033851;28;20146;-60
2022/09/14 02:25:46;;;;;;;1.75;1.55;;;24.90;1.00;;;;;;5042921;28;20128;-60
2022/09/14 02:28:12;;;;;;;4.78;1.85;;;24.90;1.00;;;;;;5033600;28;20025;-60
2022/09/14 02:31:05;;;;;;;3.05;1.45;;;24.90;1.00;;;;;;5036136;28;20026;-60
2022/09/14 02:33:48;;;;;;;2.95;1.38;;;24.90;1.00;;;;;;5031969;28;20068;-61
2022/09/14 02:36:24;;;;;;;3.58;1.95;;;24.90;1.00;;;;;;5029538;28;20096;-61
2022/09/14 02:39:07;;;;;;;2.85;1.67;;;24.90;1.00;;;;;;5032853;28;20539;-61
2022/09/14 02:41:40;;;;;;;2.67;1.42;;;24.90;1.00;;;;;;5030796;28;20037;-61
2022/09/14 02:44:24;;;;;;;2.78;1.40;;;24.90;1.00;;;;;;5032065;28;20117;-61
2022/09/14 02:47:03;;;;;;;5.32;2.10;;;25.00;1.00;;;;;;5032737;28;20041;-62
2022/09/14 02:50:10;;;;;;;4.18;1.92;;;24.90;1.00;;;;;;5021753;28;20044;-61
2022/09/14 02:52:41;;;;;;;3.92;1.50;;;25.00;1.00;;;;;;5032664;28;20109;-61
2022/09/14 02:55:17;;;;;;;4.70;1.70;;;25.00;1.00;;;;;;5032049;28;20095;-61
2022/09/14 02:58:00;;;;;;;1.88;1.35;;;25.00;1.00;;;;;;5033538;28;20027;-61
2022/09/14 03:00:27;;;;;;;2.38;1.48;;;25.00;1.00;;;;;;5030918;28;20036;-61
2022/09/14 03:02:53;;;;;;;2.67;1.50;;;25.00;1.00;;;;;;5031310;28;20033;-61
2022/09/14 03:05:19;;;;;;;2.05;1.63;;;25.00;1.00;;;;;;5031459;28;20032;-61
2022/09/14 03:07:45;;;;;;;2.83;1.63;;;25.00;1.00;;;;;;5031940;28;20452;-61
2022/09/14 03:10:11;;;;;;;2.25;1.42;;;25.00;1.00;;;;;;5034423;28;20025;-61
2022/09/14 03:12:39;;;;;;;3.17;1.65;;;24.90;1.00;;;;;;5016730;28;20520;-61
2022/09/14 03:15:05;;;;;;;5.75;2.05;;;25.00;1.00;;;;;;5031433;28;20088;-61
2022/09/14 03:17:31;;;;;;;3.25;1.58;;;25.00;1.00;;;;;;5027338;28;20419;-61
2022/09/14 03:19:57;;;;;;;4.13;1.58;;;25.00;1.00;;;;;;5034006;28;20021;-63
2022/09/14 03:22:22;;;;;;;5.18;1.67;;;25.00;1.00;;;;;;5029527;28;20045;-61
2022/09/14 03:24:48;;;;;;;3.90;1.60;;;25.00;1.00;;;;;;5032674;28;20501;-61
2022/09/14 03:27:14;;;;;;;2.65;1.92;;;24.90;1.00;;;;;;5032542;28;20040;-61
2022/09/14 03:29:39;;;;;;;5.13;1.88;;;25.00;1.00;;;;;;5030128;28;20025;-61
2022/09/14 03:32:05;;;;;;;3.63;1.70;;;25.00;1.00;;;;;;5030859;28;20037;-61
2022/09/14 03:34:31;;;;;;;4.47;1.65;;;24.90;1.00;;;;;;5023847;28;20378;-60
2022/09/14 03:36:56;;;;;;;3.10;1.80;;;24.90;1.00;;;;;;5031482;28;20087;-61
2022/09/14 03:39:22;;;;;;;6.15;1.90;;;25.00;1.00;;;;;;5031708;28;20025;-61
2022/09/14 03:41:48;;;;;;;2.22;1.63;;;24.90;1.00;;;;;;5039433;28;20056;-61
2022/09/14 03:44:14;;;;;;;2.55;1.67;;;25.00;1.00;;;;;;5031415;28;20038;-61
2022/09/14 03:46:39;;;;;;;2.72;1.80;;;25.00;1.00;;;;;;5029950;28;20033;-61
2022/09/14 03:49:05;;;;;;;3.72;1.98;;;24.90;1.00;;;;;;5031991;28;20033;-61
2022/09/14 03:51:33;;;;;;;3.33;1.83;;;24.90;1.00;;;;;;5030836;28;20193;-61
2022/09/14 03:53:59;;;;;;;5.40;2.03;;;25.00;1.00;;;;;;5030939;28;20021;-61
2022/09/14 03:56:24;;;;;;;2.10;1.77;;;25.00;1.00;;;;;;5027575;28;20384;-61
2022/09/14 03:58:50;;;;;;;4.50;2.45;;;25.00;1.00;;;;;;5029705;28;20029;-61
2022/09/14 04:01:19;;;;;;;2.65;1.70;;;24.90;1.00;;;;;;5031573;28;20036;-61
2022/09/14 04:03:45;;;;;;;5.70;1.70;;;24.90;1.00;;;;;;5029719;28;20048;-61
2022/09/14 04:06:11;;;;;;;3.13;1.30;;;25.00;1.00;;;;;;5031002;28;20109;-60
2022/09/14 04:08:39;;;;;;;4.28;1.75;;;25.00;1.00;;;;;;5030773;28;20017;-61
2022/09/14 04:11:13;;;;;;;2.45;1.88;;;25.00;1.00;;;;;;5031505;28;20076;-61
2022/09/14 04:13:40;;;;;;;4.10;1.42;;;25.00;1.00;;;;;;5017671;28;20054;-61
2022/09/14 04:16:05;;;;;;;8.45;1.80;;;25.00;1.00;;;;;;5031996;28;20038;-61
2022/09/14 04:18:31;;;;;;;5.47;1.90;;;25.00;1.00;;;;;;5033677;28;20048;-61
2022/09/14 04:20:59;;;;;;;2.05;1.73;;;25.00;1.00;;;;;;5031288;28;20041;-61
2022/09/14 04:23:25;;;;;;;6.00;1.98;;;25.00;1.00;;;;;;5030705;28;20108;-61
2022/09/14 04:25:52;;;;;;;4.25;2.00;;;25.00;1.00;;;;;;5022461;28;20033;-61
2022/09/14 04:28:17;;;;;;;2.97;1.67;;;25.00;1.00;;;;;;5029695;28;20099;-61
2022/09/14 04:30:43;;;;;;;3.45;2.20;;;25.00;1.00;;;;;;5030680;28;20394;-61
2022/09/14 04:33:08;;;;;;;4.72;2.28;;;25.00;1.00;;;;;;5029964;28;20092;-61
2022/09/14 04:35:36;;;;;;;5.28;1.77;;;25.10;1.00;;;;;;5030681;28;20053;-61
2022/09/14 04:38:03;;;;;;;3.17;2.00;;;25.00;1.00;;;;;;5034378;28;20033;-61
2022/09/14 04:40:28;;;;;;;5.55;2.25;;;25.00;1.00;;;;;;5036904;28;20020;-60
2022/09/14 04:42:54;;;;;;;7.20;2.60;;;25.00;1.00;;;;;;5043476;28;20026;-60
2022/09/14 04:45:20;;;;;;;4.43;1.75;;;25.00;1.00;;;;;;5033399;28;20029;-61
2022/09/14 04:47:45;;;;;;;4.88;2.05;;;25.00;1.00;;;;;;5034680;28;20025;-61
2022/09/14 04:50:11;;;;;;;3.72;1.65;;;24.90;1.00;;;;;;5033596;28;20114;-61
2022/09/14 04:52:37;;;;;;;2.80;1.65;;;25.00;1.00;;;;;;5036328;28;20056;-61
2022/09/14 04:55:02;;;;;;;5.82;2.25;;;25.00;1.00;;;;;;5035189;28;20518;-61
2022/09/14 04:57:28;;;;;;;3.33;1.80;;;25.00;1.00;;;;;;5033075;28;20048;-61
2022/09/14 04:59:54;;;;;;;3.85;2.00;;;25.00;1.00;;;;;;5034976;28;20171;-61
2022/09/14 05:02:19;;;;;;;4.63;1.85;;;25.00;1.00;;;;;;5028075;28;20075;-61
2022/09/14 05:04:45;;;;;;;3.00;1.70;;;25.00;1.00;;;;;;5031286;28;20017;-61
2022/09/14 05:07:10;;;;;;;2.72;1.42;;;25.00;1.00;;;;;;5034883;28;20029;-61
2022/09/14 05:09:36;;;;;;;4.25;2.00;;;25.00;1.00;;;;;;5035681;28;20079;-61
2022/09/14 05:12:02;;;;;;;3.00;1.88;;;25.00;1.00;;;;;;5034551;28;20132;-61
2022/09/14 05:14:27;;;;;;;3.58;2.05;;;25.00;1.00;;;;;;5035274;28;20037;-61
2022/09/14 05:16:55;;;;;;;2.53;1.73;;;25.00;1.00;;;;;;5033016;28;20034;-61
2022/09/14 05:19:20;;;;;;;2.72;1.63;;;25.00;1.00;;;;;;5035357;28;20022;-62
2022/09/14 05:21:46;;;;;;;3.83;2.03;;;25.10;1.00;;;;;;5033877;28;20116;-61
2022/09/14 05:24:14;;;;;;;2.95;2.10;;;25.00;1.00;;;;;;5034389;28;20057;-61
2022/09/14 05:26:42;;;;;;;6.88;2.53;;;25.00;1.00;;;;;;5027696;28;20142;-61
2022/09/14 05:29:11;;;;;;;6.05;2.22;;;25.10;1.00;;;;;;5034508;28;20025;-61
2022/09/14 05:31:37;;;;;;;4.57;2.63;;;25.10;1.00;;;;;;5031782;28;20033;-61
2022/09/14 05:34:03;;;;;;;5.82;2.28;;;25.10;1.00;;;;;;5033424;28;20040;-61
2022/09/14 05:36:28;;;;;;;4.78;2.50;;;25.10;1.00;;;;;;5043692;28;20423;-61
2022/09/14 05:38:56;;;;;;;5.30;2.22;;;25.00;1.00;;;;;;5033766;28;20098;-61
2022/09/14 05:41:22;;;;;;;4.28;2.58;;;25.00;1.00;;;;;;5033590;28;20069;-61
2022/09/14 05:43:48;;;;;;;5.72;2.50;;;25.10;1.00;;;;;;5031327;28;20543;-61
2022/09/14 05:46:15;;;;;;;3.90;2.65;;;25.00;1.00;;;;;;5040404;28;20033;-61
2022/09/14 05:48:42;;;;;;;7.50;2.42;;;25.00;1.00;;;;;;5032538;28;20048;-61
2022/09/14 05:51:12;;;;;;;5.28;2.50;;;25.00;1.00;;;;;;5039435;28;20090;-61
2022/09/14 05:53:38;;;;;;;6.65;2.75;;;25.10;1.00;;;;;;5036781;28;20025;-61
2022/09/14 05:56:12;;;;;;;6.95;3.22;;;25.10;1.00;;;;;;5033321;28;20077;-61
2022/09/14 05:58:39;;;;;;;6.18;3.10;;;25.10;1.00;;;;;;5031871;28;20088;-61
2022/09/14 06:01:10;;;;;;;5.80;3.22;;;25.10;1.00;;;;;;5037764;28;20113;-61
2022/09/14 06:03:36;;;;;;;5.22;2.67;;;25.10;1.00;;;;;;5038670;28;20040;-60
2022/09/14 06:06:03;;;;;;;8.68;3.35;;;25.10;1.00;;;;;;5032512;28;20116;-60
2022/09/14 06:08:29;;;;;;;6.63;2.85;;;25.20;1.00;;;;;;5031259;28;20032;-60
2022/09/14 06:10:55;;;;;;;9.52;3.42;;;25.10;1.00;;;;;;5039668;28;20371;-60
2022/09/14 06:13:22;;;;;;;7.18;3.13;;;25.10;1.00;;;;;;5027953;28;20028;-60
2022/09/14 06:15:48;;;;;;;6.75;3.00;;;25.10;1.00;;;;;;5032581;28;20037;-61
2022/09/14 06:18:13;;;;;;;6.93;2.97;;;25.10;1.00;;;;;;5028305;28;20049;-61
2022/09/14 06:20:39;;;;;;;7.50;3.00;;;25.10;1.00;;;;;;5039889;28;20049;-61
2022/09/14 06:23:04;;;;;;;7.63;2.70;;;25.20;1.00;;;;;;5032837;28;20431;-61
2022/09/14 06:25:30;;;;;;;5.47;2.40;;;25.20;1.00;;;;;;5030503;28;20130;-61
2022/09/14 06:27:56;;;;;;;4.50;2.65;;;25.20;1.00;;;;;;5034122;28;20559;-61
2022/09/14 06:30:21;;;;;;;6.22;3.13;;;25.20;1.00;;;;;;5031398;28;20033;-61
2022/09/14 06:32:47;;;;;;;9.30;3.13;;;25.30;1.00;;;;;;5034114;28;20096;-61
2022/09/14 06:35:13;;;;;;;7.40;2.92;;;25.20;1.00;;;;;;5032752;28;20502;-61
2022/09/14 06:37:39;;;;;;;8.90;2.40;;;25.30;1.00;;;;;;5026559;28;20021;-61
2022/09/14 06:40:05;;;;;;;5.55;2.90;;;25.40;1.00;;;;;;5027698;28;20494;-61
2022/09/14 06:42:31;;;;;;;5.45;2.88;;;25.40;1.00;;;;;;5034627;28;20078;-61
2022/09/14 06:44:56;;;;;;;7.03;3.17;;;25.30;1.00;;;;;;5030383;28;20030;-60
2022/09/14 06:47:22;;;;;;;9.52;2.92;;;25.20;1.00;;;;;;5035182;28;20028;-61
2022/09/14 06:49:49;;;;;;;6.03;2.90;;;25.20;1.00;;;;;;5027166;28;20100;-61
2022/09/14 06:52:15;;;;;;;9.02;2.92;;;25.20;1.00;;;;;;5029930;28;20467;-62
2022/09/14 06:54:40;;;;;;;5.13;2.40;;;25.20;1.00;;;;;;5032969;28;20029;-62
2022/09/14 06:57:06;;;;;;;4.90;3.13;;;25.30;1.00;;;;;;5039898;28;20472;-61
2022/09/14 06:59:31;;;;;;;6.07;2.92;;;25.40;1.00;;;;;;5032871;28;20056;-61
2022/09/14 07:01:57;;;;;;;11.50;3.17;;;25.40;1.00;;;;;;5030700;28;20483;-62
2022/09/14 07:04:23;;;;;;;7.70;3.17;;;25.50;1.00;;;;;;5028743;28;20052;-62
2022/09/14 07:06:49;;;;;;;8.73;2.83;;;25.50;1.00;;;;;;5031548;28;20022;-62
2022/09/14 07:09:17;;;;;;;9.10;4.13;;;25.50;1.00;;;;;;5033679;28;20511;-62
2022/09/14 07:11:43;;;;;;;7.63;4.53;;;25.60;1.00;;;;;;5036167;28;20040;-61
2022/09/14 07:14:09;;;;;;;6.78;4.10;;;25.70;1.00;;;;;;5033539;28;20136;-61
2022/09/14 07:16:36;;;;;;;8.15;3.95;;;25.70;1.00;;;;;;5037511;28;20368;-61
2022/09/14 07:19:05;;;;;;;6.10;3.50;;;25.70;1.00;;;;;;5032140;28;20506;-62
2022/09/14 07:21:32;;;;;;;7.13;3.47;;;25.60;1.00;;;;;;5032635;28;20049;-62
2022/09/14 07:23:58;;;;;;;8.50;3.20;;;25.60;1.00;;;;;;5032501;28;20036;-61
2022/09/14 07:26:29;;;;;;;7.93;3.53;;;25.60;1.00;;;;;;5032332;28;20030;-62
2022/09/14 07:28:58;;;;;;;5.95;3.63;;;25.60;1.00;;;;;;5033406;28;20072;-61
2022/09/14 07:31:26;;;;;;;8.93;3.80;;;25.60;1.00;;;;;;5032608;28;20111;-62
2022/09/14 07:33:53;;;;;;;8.60;4.07;;;25.60;1.00;;;;;;5033144;28;20028;-62
2022/09/14 07:36:20;;;;;;;11.23;4.43;;;25.60;1.00;;;;;;5032817;28;20029;-62
2022/09/14 07:38:45;;;;;;;8.55;3.58;;;25.60;1.00;;;;;;5032931;28;20045;-62
2022/09/14 07:41:11;;;;;;;5.07;3.45;;;25.60;1.00;;;;;;5033599;28;20096;-62
2022/09/14 07:43:37;;;;;;;6.97;3.60;;;25.60;1.00;;;;;;5035103;28;20032;-62
2022/09/14 07:46:03;;;;;;;9.98;3.85;;;25.70;1.00;;;;;;5038254;28;20028;-62
2022/09/14 07:48:30;;;;;;;5.75;3.58;;;25.80;1.00;;;;;;5026662;28;20076;-62
2022/09/14 07:51:04;;;;;;;8.70;3.10;;;25.80;1.00;;;;;;5031902;28;20048;-62
2022/09/14 07:53:31;;;;;;;5.38;2.60;;;25.90;1.00;;;;;;5032584;28;20483;-61
2022/09/14 07:56:00;;;;;;;5.50;2.67;;;25.90;1.00;;;;;;5019226;28;20025;-61
2022/09/14 07:58:29;;;;;;;5.80;3.10;;;25.70;1.00;;;;;;5032736;28;20049;-61
2022/09/14 08:01:10;;;;;;;6.18;2.75;;;25.70;1.00;;;;;;5031487;28;20068;-62
2022/09/14 08:03:42;;;;;;;5.38;2.88;;;25.60;1.00;;;;;;5032562;28;20425;-62
2022/09/14 08:06:13;;;;;;;9.65;3.60;;;25.70;1.00;;;;;;5031674;28;20029;-62
2022/09/14 08:08:41;;;;;;;5.57;2.72;;;25.50;1.00;;;;;;5032840;28;20517;-61
2022/09/14 08:11:11;;;;;;;5.75;2.95;;;25.60;1.00;;;;;;5031782;28;20026;-61
2022/09/14 08:13:39;;;;;;;9.57;3.70;;;25.60;1.00;;;;;;5031774;28;20100;-62
2022/09/14 08:16:05;;;;;;;8.35;3.53;;;25.50;1.00;;;;;;5029618;28;20029;-61
2022/09/14 08:18:33;;;;;;;9.10;2.95;;;25.50;1.00;;;;;;5036324;28;20084;-61
2022/09/14 08:21:05;;;;;;;8.75;3.10;;;25.50;1.00;;;;;;5031288;28;20116;-61
2022/09/14 08:23:31;;;;;;;7.32;3.15;;;25.60;1.00;;;;;;5032354;28;20056;-61
2022/09/14 08:26:02;;;;;;;8.95;3.35;;;25.60;1.00;;;;;;5031302;28;20135;-61
2022/09/14 08:28:28;;;;;;;7.55;2.95;;;25.60;1.00;;;;;;5031715;28;20033;-61
2022/09/14 08:30:54;;;;;;;9.60;3.28;;;25.70;1.00;;;;;;5040403;28;20514;-62
2022/09/14 08:33:19;;;;;;;8.10;2.63;;;25.60;1.00;;;;;;5032266;28;20151;-62
2022/09/14 08:35:45;;;;;;;7.43;3.13;;;25.40;1.00;;;;;;5030406;28;20018;-61
2022/09/14 08:38:10;;;;;;;7.05;2.70;;;25.40;1.00;;;;;;5032160;28;20032;-61
2022/09/14 08:40:44;;;;;;;5.47;2.90;;;25.40;1.00;;;;;;5043460;28;20032;-61
2022/09/14 08:43:11;;;;;;;8.15;2.88;;;25.40;1.00;;;;;;5041425;28;20025;-61
2022/09/14 08:45:40;;;;;;;4.05;2.60;;;25.60;1.00;;;;;;5031729;28;20041;-61
2022/09/14 08:48:21;;;;;;;4.82;2.83;;;25.80;1.00;;;;;;5032186;28;20091;-61
2022/09/14 08:50:52;;;;;;;6.47;3.10;;;25.80;1.00;;;;;;5032567;28;20035;-61
2022/09/14 08:53:21;;;;;;;6.60;2.97;;;25.90;1.00;;;;;;5032270;28;20059;-61
2022/09/14 08:55:50;;;;;;;5.85;2.80;;;25.80;1.00;;;;;;5032407;28;20505;-61
2022/09/14 08:58:43;;;;;;;6.28;3.05;;;25.90;1.00;;;;;;5030887;28;20493;-61
2022/09/14 09:01:17;;;;;;;5.88;2.40;;;26.10;1.00;;;;;;5033562;28;20100;-61
2022/09/14 09:04:08;;;;;;;5.93;3.78;;;26.10;1.00;;;;;;5021690;28;20026;-61
2022/09/14 09:07:02;;;;;;;8.07;2.90;;;26.10;1.00;;;;;;5024238;28;20034;-61
2022/09/14 09:09:39;;;;;;;4.75;2.50;;;26.10;1.00;;;;;;5030049;28;20379;-61
2022/09/14 09:12:05;;;;;;;6.93;2.63;;;26.40;1.00;;;;;;5031158;28;20045;-61
2022/09/14 09:14:38;;;;;;;6.60;2.53;;;26.30;1.00;;;;;;5028810;28;20045;-61
2022/09/14 09:17:13;;;;;;;4.33;3.30;;;26.40;1.00;;;;;;5029303;28;20068;-61
2022/09/14 09:20:08;;;;;;;6.55;3.60;;;26.40;1.00;;;;;;5031225;28;20069;-61
2022/09/14 09:23:20;;;;;;;6.65;2.70;;;26.50;1.00;;;;;;5037660;28;20429;-61
2022/09/14 09:26:04;;;;;;;7.90;3.30;;;26.60;1.00;;;;;;5034828;28;21714;-61
2022/09/14 09:28:31;;;;;;;9.52;5.28;;;26.70;1.00;;;;;;5035557;28;20032;-61
2022/09/14 09:31:04;;;;;;;5.82;3.15;;;26.70;1.00;;;;;;5035355;28;20033;-62
2022/09/14 09:33:30;;;;;;;9.97;3.60;;;26.70;1.00;;;;;;5035610;28;20030;-62
2022/09/14 09:35:56;;;;;;;9.27;3.35;;;26.80;1.00;;;;;;5033843;28;20025;-62
2022/09/14 09:38:25;;;;;;;6.20;3.20;;;26.90;1.00;;;;;;5033824;28;20033;-61
2022/09/14 09:41:08;;;;;;;7.95;3.35;;;27.00;1.00;;;;;;5033366;28;20092;-61
2022/09/14 09:43:34;;;;;;;8.02;3.47;;;27.00;1.00;;;;;;5041607;28;20108;-62
2022/09/14 09:46:04;;;;;;;9.00;3.15;;;27.00;1.00;;;;;;5033228;28;22414;-61
2022/09/14 09:48:32;;;;;;;6.50;2.75;;;27.20;1.00;;;;;;5035356;28;20510;-62
2022/09/14 09:51:16;;;;;;;6.57;3.15;;;27.30;1.00;;;;;;5036479;28;20451;-61
2022/09/14 09:53:58;;;;;;;8.38;3.17;;;27.20;1.00;;;;;;5021945;28;20418;-61
2022/09/14 09:56:27;;;;;;;10.23;3.30;;;27.40;1.00;;;;;;5042809;28;20566;-61
2022/09/14 09:58:53;;;;;;;7.95;3.38;;;27.50;1.00;;;;;;5034932;28;20513;-61
2022/09/14 10:01:28;;;;;;;7.10;3.40;;;27.60;1.00;;;;;;5038810;28;20076;-61
2022/09/14 10:04:15;;;;;;;7.20;3.55;;;27.60;1.00;;;;;;5021658;28;20096;-61
2022/09/14 10:06:44;;;;;;;5.68;3.97;;;27.50;1.00;;;;;;5038559;28;20111;-61
2022/09/14 10:09:28;;;;;;;12.02;3.35;;;27.50;1.00;;;;;;5034967;28;20036;-61
2022/09/14 10:12:02;;;;;;;11.05;3.97;;;27.10;1.00;;;;;;5038706;28;20467;-61
2022/09/14 10:14:32;;;;;;;11.27;3.83;;;27.10;1.00;;;;;;5032516;28;20057;-61
2022/09/14 10:17:16;;;;;;;8.82;4.00;;;27.20;1.00;;;;;;5033060;28;20371;-61
2022/09/14 10:19:53;;;;;;;5.38;3.10;;;27.10;1.00;;;;;;5034440;28;20128;-61
2022/09/14 10:22:31;;;;;;;6.00;3.47;;;27.20;1.00;;;;;;5040265;28;20471;-60
2022/09/14 10:25:24;;;;;;;7.35;3.20;;;27.20;1.00;;;;;;5032763;28;20111;-60
2022/09/14 10:27:58;;;;;;;4.40;3.03;;;27.20;1.00;;;;;;5037372;28;20040;-61
2022/09/14 10:30:44;;;;;;;6.57;2.88;;;27.30;1.00;;;;;;5034292;28;20026;-61
2022/09/14 10:33:13;;;;;;;10.25;3.40;;;27.30;1.00;;;;;;5033331;28;20098;-61
2022/09/14 10:36:16;;;;;;;7.25;3.15;;;27.30;1.00;;;;;;5029025;28;20029;-61
2022/09/14 10:38:47;;;;;;;8.57;3.17;;;27.50;1.00;;;;;;5026666;28;20040;-61
2022/09/14 10:41:21;;;;;;;6.65;2.90;;;27.60;1.00;;;;;;5031902;28;20511;-61
2022/09/14 10:43:58;;;;;;;9.75;3.72;;;27.80;1.00;;;;;;5034094;28;20021;-61
2022/09/14 10:46:33;;;;;;;8.20;3.10;;;27.90;1.00;;;;;;5036899;28;20050;-61
2022/09/14 10:49:15;;;;;;;4.97;2.75;;;27.80;1.00;;;;;;5041116;28;20021;-61
2022/09/14 10:51:46;;;;;;;5.97;4.32;;;27.90;1.00;;;;;;5021935;28;20037;-60
2022/09/14 10:54:27;;;;;;;7.97;3.58;;;28.10;1.00;;;;;;5034035;28;20037;-60
2022/09/14 10:56:58;;;;;;;5.20;3.42;;;28.10;1.00;;;;;;5036012;28;20427;-61
2022/09/14 10:59:53;;;;;;;5.70;3.22;;;28.00;1.00;;;;;;5018013;28;20483;-60
2022/09/14 11:02:43;;;;;;;8.35;3.58;;;28.00;1.00;;;;;;5031509;28;20048;-61
2022/09/14 11:05:35;;;;;;;6.03;3.70;;;28.00;1.00;;;;;;5020241;28;20025;-61
2022/09/14 11:08:09;;;;;;;7.15;3.83;;;28.10;1.00;;;;;;5032846;28;20030;-60
2022/09/14 11:10:54;;;;;;;6.30;3.88;;;28.20;1.00;;;;;;5033715;28;20143;-61
2022/09/14 11:13:47;;;;;;;7.65;3.30;;;28.20;1.00;;;;;;5038266;28;20360;-60
2022/09/14 11:16:18;;;;;;;7.25;3.58;;;28.20;1.00;;;;;;5033596;28;20588;-61
2022/09/14 11:18:52;;;;;;;7.38;3.75;;;28.30;1.00;;;;;;5033756;28;20061;-61
2022/09/14 11:21:21;;;;;;;9.73;3.20;;;28.40;1.00;;;;;;5034717;28;20574;-61
2022/09/14 11:23:57;;;;;;;7.03;3.13;;;28.50;1.00;;;;;;5033719;28;20120;-61
2022/09/14 11:26:43;;;;;;;4.55;3.08;;;28.40;1.00;;;;;;5032603;28;20044;-62
2022/09/14 11:29:30;;;;;;;4.75;2.60;;;28.50;1.00;;;;;;5034686;28;20110;-61
2022/09/14 11:32:29;;;;;;;5.00;3.30;;;28.60;1.00;;;;;;5030684;28;20025;-61
2022/09/14 11:35:16;;;;;;;7.25;3.33;;;28.60;1.00;;;;;;5028044;28;20048;-61
2022/09/14 11:37:59;;;;;;;5.93;2.97;;;28.80;1.00;;;;;;5026986;28;20018;-61
2022/09/14 11:40:42;;;;;;;5.77;3.17;;;28.90;1.00;;;;;;5021010;28;20069;-61
2022/09/14 11:43:30;;;;;;;5.57;2.77;;;28.90;1.00;;;;;;5039038;28;20034;-61
2022/09/14 11:46:12;;;;;;;6.20;3.45;;;29.10;1.00;;;;;;5032728;28;20086;-60
2022/09/14 11:49:00;;;;;;;6.72;3.22;;;29.00;1.00;;;;;;5031785;28;20084;-61
2022/09/14 11:51:32;;;;;;;7.28;3.17;;;29.10;1.00;;;;;;5032824;28;20020;-60
2022/09/14 11:53:58;;;;;;;4.20;3.00;;;29.10;1.00;;;;;;5038316;28;20033;-60
2022/09/14 11:56:27;;;;;;;7.15;3.75;;;29.10;1.00;;;;;;5031263;28;20490;-60
2022/09/14 11:58:58;;;;;;;6.75;2.70;;;29.00;1.00;;;;;;5031981;28;20029;-60
2022/09/14 12:01:28;;;;;;;4.78;2.55;;;28.80;1.00;;;;;;5032573;28;20044;-60
2022/09/14 12:03:59;;;;;;;5.57;3.25;;;28.70;1.00;;;;;;5039804;28;20029;-60
2022/09/14 12:06:37;;;;;;;7.22;2.50;;;28.80;1.00;;;;;;5032534;28;20065;-60
2022/09/14 12:09:20;;;;;;;3.95;2.80;;;28.70;1.00;;;;;;5032150;28;20075;-60
2022/09/14 12:11:55;;;;;;;6.38;2.58;;;28.70;1.00;;;;;;5030057;28;20087;-62
2022/09/14 12:14:26;;;;;;;3.97;2.38;;;28.80;1.00;;;;;;5039101;28;20045;-61
2022/09/14 12:17:01;;;;;;;4.80;2.55;;;28.90;1.00;;;;;;5031864;28;20071;-61
2022/09/14 12:19:27;;;;;;;5.47;3.45;;;29.10;1.00;;;;;;5032818;28;20065;-61
2022/09/14 12:21:53;;;;;;;4.70;2.70;;;29.10;1.00;;;;;;5031431;28;20072;-61
2022/09/14 12:24:21;;;;;;;5.88;2.80;;;29.40;1.00;;;;;;5042471;28;20068;-61
2022/09/14 12:26:47;;;;;;;5.38;2.60;;;30.10;1.00;;;;;;5032312;28;20030;-61
2022/09/14 12:29:24;;;;;;;3.53;2.70;;;32.50;1.00;;;;;;5027026;28;20360;-62
2022/09/14 12:31:50;;;;;;;3.92;2.88;;;36.40;1.00;;;;;;5032570;28;20033;-61
2022/09/14 12:34:22;;;;;;;5.15;2.30;;;35.60;1.00;;;;;;5030944;28;20444;-61
2022/09/14 12:36:48;;;;;;;6.82;3.17;;;33.90;1.00;;;;;;5032277;28;20053;-61
2022/09/14 12:39:32;;;;;;;5.20;3.28;;;32.20;1.00;;;;;;5032031;28;20105;-61
2022/09/14 12:42:02;;;;;;;;;;;30.90;1.00;;;;;;5040827;28;20044;-61
2022/09/14 12:44:29;;;;;;;6.80;3.00;;;30.30;1.00;;;;;;5028841;28;20351;-62
2022/09/14 12:46:55;;;;;;;3.60;2.67;;;29.80;1.00;;;;;;5032257;28;20021;-61
2022/09/14 12:49:33;;;;;;;3.85;2.28;;;29.80;1.00;;;;;;5033191;28;20364;-60
2022/09/14 12:52:09;;;;;;;4.65;2.22;;;29.70;1.00;;;;;;5030134;28;20029;-61
2022/09/14 12:54:48;;;;;;;3.10;2.20;;;29.30;1.00;;;;;;5020081;28;20121;-61
2022/09/14 12:57:33;;;;;;;4.25;2.30;;;29.20;1.00;;;;;;5032160;28;20026;-61
2022/09/14 13:00:13;;;;;;;7.30;3.13;;;29.20;1.00;;;;;;5040885;28;20037;-61
2022/09/14 13:02:50;;;;;;;5.10;2.85;;;29.10;1.00;;;;;;5037747;28;20108;-61
2022/09/14 13:05:22;;;;;;;5.38;2.50;;;29.10;1.00;;;;;;5035896;28;20065;-62
2022/09/14 13:07:48;;;;;;;8.13;2.92;;;28.90;1.00;;;;;;5031719;28;20022;-61
2022/09/14 13:10:21;;;;;;;4.88;1.98;;;28.90;1.00;;;;;;5022729;28;20088;-61
2022/09/14 13:12:48;;;;;;;6.63;2.78;;;28.80;1.00;;;;;;5025776;28;20337;-60
2022/09/14 13:15:19;;;;;;;4.25;2.38;;;28.90;1.00;;;;;;5035523;28;20054;-61
2022/09/14 13:18:27;;;;;;;7.90;3.28;;;29.00;1.00;;;;;;5034839;28;20026;-60
2022/09/14 13:20:57;;;;;;;5.05;2.67;;;28.90;1.00;;;;;;5022135;28;20044;-61